Time;durP1;ratioP1;P1;durP2;ratioP2;P2;SDS_P1;SDS_P2;PMS_P1;PMS_P2;Temp;Humidity;BMP_temperature;BMP_pressure;BME280_temperature;BME280_humidity;BME280_pressure;Samples;Min_cycle;Max_cycle;Signal;HPM_P1;HPM_P2
2023/11/23 00:00:13;;;;;;;5.10;3.15;;;;;;;-4.99;87.00;100230.56;5014142;28;20069;-68
2023/11/23 00:02:40;;;;;;;3.58;3.28;;;;;;;-4.95;87.61;100233.00;5014279;28;20100;-66
2023/11/23 00:05:17;;;;;;;3.30;2.70;;;;;;;-4.90;87.68;100221.47;5013092;28;20044;-64
2023/11/23 00:07:43;;;;;;;2.83;2.63;;;;;;;-4.91;88.84;100199.03;5014169;28;20046;-67
2023/11/23 00:10:10;;;;;;;5.77;3.60;;;;;;;-4.99;88.63;100181.22;5013951;28;20038;-67
2023/11/23 00:12:36;;;;;;;5.97;3.33;;;;;;;-4.97;88.48;100178.53;5013896;28;20065;-66
2023/11/23 00:15:03;;;;;;;3.97;3.20;;;;;;;-5.22;90.10;100136.56;5013573;28;20069;-65
2023/11/23 00:17:32;;;;;;;6.20;3.50;;;;;;;-4.97;91.33;100168.16;5014342;28;20069;-69
2023/11/23 00:19:58;;;;;;;6.97;4.10;;;;;;;-5.12;92.43;100130.00;5014265;28;20135;-65
2023/11/23 00:22:23;;;;;;;3.77;3.40;;;;;;;-5.12;92.27;100143.00;5013897;28;20033;-65
2023/11/23 00:24:49;;;;;;;4.07;3.60;;;;;;;-5.21;92.72;100127.84;5013662;28;20304;-66
2023/11/23 00:27:15;;;;;;;6.53;3.90;;;;;;;-5.41;94.09;100090.81;5013060;28;20065;-65
2023/11/23 00:29:41;;;;;;;6.17;4.83;;;;;;;-5.46;94.33;100056.47;5014684;28;20049;-66
2023/11/23 00:32:07;;;;;;;4.83;3.93;;;;;;;-5.19;95.14;100107.88;5012959;28;20088;-64
2023/11/23 00:34:33;;;;;;;9.32;3.67;;;;;;;-5.58;97.25;100075.25;5013828;28;20060;-66
2023/11/23 00:36:59;;;;;;;6.72;3.70;;;;;;;-5.34;98.47;100093.91;5013784;28;20052;-65
2023/11/23 00:39:25;;;;;;;4.40;4.00;;;;;;;-5.75;99.72;100021.63;5013654;28;20042;-66
2023/11/23 00:41:51;;;;;;;5.67;3.60;;;;;;;-5.47;100.00;100049.59;5013745;28;20037;-67
2023/11/23 00:44:17;;;;;;;7.30;4.07;;;;;;;-5.46;100.00;100051.28;5013814;28;20511;-66
2023/11/23 00:46:43;;;;;;;6.05;4.95;;;;;;;-5.46;100.00;100045.25;5012146;28;20073;-65
2023/11/23 00:49:09;;;;;;;8.17;6.90;;;;;;;-5.56;100.00;100013.72;5013407;28;20069;-66
2023/11/23 00:51:36;;;;;;;5.47;4.30;;;;;;;-5.47;100.00;100030.59;5013739;28;20096;-66
2023/11/23 00:54:04;;;;;;;6.55;4.53;;;;;;;-5.63;100.00;99989.03;5013654;28;20037;-65
2023/11/23 00:56:30;;;;;;;7.55;4.75;;;;;;;-5.62;100.00;99994.16;5013352;28;20507;-65
2023/11/23 00:58:55;;;;;;;7.60;5.07;;;;;;;-6.21;100.00;99890.94;5013537;28;20042;-66
2023/11/23 01:01:21;;;;;;;5.27;4.40;;;;;;;-5.61;100.00;99956.06;5012923;28;20030;-64
2023/11/23 01:03:47;;;;;;;5.43;4.83;;;;;;;-5.63;100.00;99960.50;5012757;28;20104;-65
2023/11/23 01:06:12;;;;;;;6.40;4.80;;;;;;;-5.72;100.00;99929.88;5013360;28;20065;-65
2023/11/23 01:08:38;;;;;;;7.77;5.10;;;;;;;-5.67;100.00;99922.69;5013271;28;20038;-64
2023/11/23 01:11:04;;;;;;;13.90;4.57;;;;;;;-5.78;100.00;99899.03;5012427;28;20038;-66
2023/11/23 01:13:30;;;;;;;5.77;4.73;;;;;;;-5.67;100.00;99897.56;5013578;28;20378;-66
2023/11/23 01:15:56;;;;;;;5.87;4.00;;;;;;;-5.58;100.00;99896.25;5013161;28;20041;-65
2023/11/23 01:18:23;;;;;;;6.15;4.53;;;;;;;-5.43;100.00;99890.25;5012878;28;20057;-66
2023/11/23 01:20:50;;;;;;;7.20;6.03;;;;;;;-5.63;100.00;99856.75;5012722;28;20042;-64
2023/11/23 01:23:16;;;;;;;6.97;4.68;;;;;;;-5.50;100.00;99857.75;5012899;28;20038;-65
2023/11/23 01:25:42;;;;;;;6.53;4.50;;;;;;;-5.49;100.00;99856.84;5012957;28;20041;-66
2023/11/23 01:28:08;;;;;;;7.40;4.23;;;;;;;-5.55;100.00;99826.03;5013259;28;20053;-67
2023/11/23 01:30:34;;;;;;;5.28;4.30;;;;;;;-5.49;100.00;99817.06;5012946;28;20037;-66
2023/11/23 01:32:59;;;;;;;8.60;4.20;;;;;;;-5.28;100.00;99815.06;5012881;28;20489;-64
2023/11/23 01:35:25;;;;;;;5.00;3.83;;;;;;;-5.40;100.00;99775.06;5013365;28;20034;-67
2023/11/23 01:37:50;;;;;;;6.73;4.10;;;;;;;-5.37;100.00;99754.13;5015197;28;20489;-66
2023/11/23 01:40:17;;;;;;;7.13;4.10;;;;;;;-5.39;100.00;99749.03;5013621;28;20576;-68
2023/11/23 01:42:44;;;;;;;4.95;3.80;;;;;;;-5.28;100.00;99744.97;5012557;28;20033;-66
2023/11/23 01:45:10;;;;;;;5.23;4.13;;;;;;;-5.15;100.00;99751.16;5012377;28;20129;-65
2023/11/23 01:47:39;;;;;;;5.40;4.13;;;;;;;-5.35;100.00;99696.03;5012552;28;20273;-67
2023/11/23 01:50:06;;;;;;;5.57;3.88;;;;;;;-5.37;100.00;99671.09;5010865;28;20693;-66
2023/11/23 01:52:32;;;;;;;5.40;3.67;;;;;;;-5.26;100.00;99671.28;5010874;28;20112;-66
2023/11/23 01:54:58;;;;;;;4.70;3.83;;;;;;;-5.15;100.00;99673.28;5012270;28;20497;-67
2023/11/23 01:57:27;;;;;;;4.40;4.00;;;;;;;-5.76;100.00;99566.13;5008753;28;20042;-66
2023/11/23 01:59:54;;;;;;;4.53;3.90;;;;;;;-5.30;100.00;99647.28;5012415;28;20034;-64
2023/11/23 02:02:19;;;;;;;5.32;4.18;;;;;;;-5.19;100.00;99653.63;5010722;28;20069;-65
2023/11/23 02:04:48;;;;;;;4.80;3.77;;;;;;;-5.20;100.00;99652.78;5012212;28;20073;-64
2023/11/23 02:07:14;;;;;;;7.50;4.40;;;;;;;-5.31;100.00;99640.44;5011972;28;20033;-66
2023/11/23 02:09:39;;;;;;;5.30;3.77;;;;;;;-5.20;100.00;99620.81;5012043;28;20449;-66
2023/11/23 02:12:08;;;;;;;4.60;3.90;;;;;;;-5.27;100.00;99612.53;5011954;28;20041;-66
2023/11/23 02:14:35;;;;;;;4.70;4.20;;;;;;;-5.54;100.00;99550.13;5012079;28;20037;-65
2023/11/23 02:17:17;;;;;;;5.05;3.88;;;;;;;-5.44;100.00;99566.00;5012070;28;20071;-65
2023/11/23 02:19:44;;;;;;;5.45;4.20;;;;;;;-5.50;100.00;99551.59;5010547;28;20030;-65
2023/11/23 02:22:14;;;;;;;6.60;4.63;;;;;;;-5.38;100.00;99544.88;5012059;28;20038;-64
2023/11/23 02:24:40;;;;;;;6.40;4.28;;;;;;;-5.79;100.00;99475.53;5011902;28;20077;-66
2023/11/23 02:27:07;;;;;;;12.47;4.60;;;;;;;-6.01;100.00;99411.22;5011892;28;20100;-64
2023/11/23 02:29:34;;;;;;;11.90;4.70;;;;;;;-5.67;100.00;99492.13;5010820;28;20050;-66
2023/11/23 02:32:09;;;;;;;7.32;4.18;;;;;;;-5.50;100.00;99486.75;5011776;28;20104;-66
2023/11/23 02:34:37;;;;;;;5.75;4.03;;;;;;;-5.64;100.00;99481.56;5011891;28;20513;-65
2023/11/23 02:37:04;;;;;;;6.40;4.60;;;;;;;-5.58;100.00;99460.44;5013728;28;20038;-65
2023/11/23 02:39:30;;;;;;;4.68;3.92;;;;;;;-5.61;100.00;99445.06;5016121;28;20085;-65
2023/11/23 02:41:57;;;;;;;5.40;4.07;;;;;;;-5.50;100.00;99432.28;5015778;28;20037;-65
2023/11/23 02:44:23;;;;;;;5.72;4.10;;;;;;;-5.69;100.00;99400.63;5015542;28;20038;-66
2023/11/23 02:46:48;;;;;;;5.20;4.47;;;;;;;-5.57;100.00;99394.69;5015782;28;20057;-66
2023/11/23 02:49:15;;;;;;;4.10;3.70;;;;;;;-5.59;100.00;99390.50;5015868;28;20075;-65
2023/11/23 02:51:40;;;;;;;4.78;4.38;;;;;;;-5.54;100.00;99375.50;5015844;28;20408;-65
2023/11/23 02:54:06;;;;;;;4.73;4.23;;;;;;;-5.44;100.00;99377.44;5016169;28;20038;-65
2023/11/23 02:56:32;;;;;;;7.97;5.97;;;;;;;-5.57;100.00;99350.59;5018035;28;20524;-66
2023/11/23 02:58:58;;;;;;;6.38;4.20;;;;;;;-5.70;100.00;99326.34;5016743;28;20038;-66
2023/11/23 03:01:24;;;;;;;6.57;4.40;;;;;;;-5.47;100.00;99359.47;5014331;28;20140;-64
2023/11/23 03:03:50;;;;;;;4.97;4.20;;;;;;;-5.63;100.00;99301.69;5016158;28;20041;-65
2023/11/23 03:06:15;;;;;;;4.10;3.80;;;;;;;-5.53;100.00;99318.34;5015723;28;20523;-66
2023/11/23 03:08:42;;;;;;;4.53;4.13;;;;;;;-5.61;100.00;99307.63;5015409;28;20034;-65
2023/11/23 03:11:20;;;;;;;9.80;3.90;;;;;;;-5.59;100.00;99297.13;5015186;28;20432;-65
2023/11/23 03:13:47;;;;;;;4.53;3.60;;;;;;;-5.62;100.00;99282.59;5013746;28;20096;-67
2023/11/23 03:16:13;;;;;;;6.20;3.40;;;;;;;-5.69;100.00;99270.97;5015103;28;20080;-67
2023/11/23 03:18:39;;;;;;;5.88;4.10;;;;;;;-5.55;100.00;99289.06;5016396;28;20488;-65
2023/11/23 03:21:05;;;;;;;4.37;3.63;;;;;;;-5.58;100.00;99284.06;5016154;28;20029;-65
2023/11/23 03:23:31;;;;;;;4.20;3.47;;;;;;;-5.61;100.00;99292.06;5015425;28;20077;-65
2023/11/23 03:25:58;;;;;;;4.40;4.00;;;;;;;-5.64;100.00;99250.75;5015123;28;20486;-65
2023/11/23 03:28:25;;;;;;;5.60;3.85;;;;;;;-5.65;100.00;99268.06;5015313;28;20068;-66
2023/11/23 03:30:53;;;;;;;4.53;3.72;;;;;;;-5.78;100.00;99235.22;5014866;28;20115;-65
2023/11/23 03:33:18;;;;;;;4.38;3.58;;;;;;;-5.63;100.00;99239.44;5014616;28;20092;-65
2023/11/23 03:35:44;;;;;;;6.10;3.63;;;;;;;-5.69;100.00;99208.72;5014635;28;20065;-65
2023/11/23 03:38:09;;;;;;;5.83;4.27;;;;;;;-5.79;100.00;99194.66;5014699;28;20056;-67
2023/11/23 03:40:37;;;;;;;4.27;3.73;;;;;;;-5.59;100.00;99203.78;5014809;28;20080;-65
2023/11/23 03:43:03;;;;;;;8.23;4.00;;;;;;;-5.65;100.00;99173.88;5014815;28;20030;-65
2023/11/23 03:45:29;;;;;;;6.53;4.50;;;;;;;-5.76;100.00;99181.53;5014587;28;20049;-65
2023/11/23 03:47:54;;;;;;;9.03;3.97;;;;;;;-5.76;100.00;99161.63;5012468;28;20057;-65
2023/11/23 03:50:20;;;;;;;5.77;4.23;;;;;;;-5.65;100.00;99163.50;5014167;28;20033;-64
2023/11/23 03:52:46;;;;;;;8.17;3.37;;;;;;;-5.61;100.00;99183.13;5013141;28;20493;-65
2023/11/23 03:55:11;;;;;;;4.80;4.10;;;;;;;-5.62;100.00;99153.75;5014183;28;20080;-65
2023/11/23 03:57:40;;;;;;;5.33;3.80;;;;;;;-5.71;100.00;99143.16;5014361;28;20038;-65
2023/11/23 04:00:06;;;;;;;;;;;;;;;-5.58;100.00;99141.41;5013786;28;20041;-65
2023/11/23 04:02:33;;;;;;;4.57;3.45;;;;;;;-5.68;100.00;99124.81;5014228;28;19979;-68
2023/11/23 04:04:59;;;;;;;4.22;3.63;;;;;;;-5.69;100.00;99118.78;5013777;28;20132;-65
2023/11/23 04:07:24;;;;;;;4.10;3.50;;;;;;;-5.63;100.00;99112.38;5014154;28;20505;-65
2023/11/23 04:09:50;;;;;;;4.40;4.00;;;;;;;-5.64;100.00;99079.59;5014281;28;20485;-64
2023/11/23 04:12:16;;;;;;;5.47;4.05;;;;;;;-5.70;100.00;99067.03;5014732;28;20042;-67
2023/11/23 04:14:41;;;;;;;4.37;3.83;;;;;;;-5.99;100.00;99015.38;5024730;28;20546;-66
2023/11/23 04:17:07;;;;;;;5.47;4.33;;;;;;;-5.81;100.00;99038.38;5016119;28;20037;-68
2023/11/23 04:19:33;;;;;;;3.90;3.50;;;;;;;-5.85;100.00;99023.97;5020589;28;20046;-64
2023/11/23 04:21:59;;;;;;;9.27;4.43;;;;;;;-5.58;100.00;99055.00;5034523;28;20038;-66
2023/11/23 04:24:26;;;;;;;4.07;3.67;;;;;;;-5.47;100.00;99044.75;5028837;28;20049;-66
2023/11/23 04:26:54;;;;;;;4.85;3.65;;;;;;;-5.52;100.00;99033.84;5015774;28;20054;-66
2023/11/23 04:29:19;;;;;;;4.35;3.90;;;;;;;-5.52;100.00;99021.69;5015231;28;20552;-65
2023/11/23 04:31:45;;;;;;;6.70;3.90;;;;;;;-5.57;100.00;99036.75;5014640;28;20042;-66
2023/11/23 04:34:14;;;;;;;5.47;3.33;;;;;;;-5.59;100.00;99033.44;4996833;28;20273;-66
2023/11/23 04:36:39;;;;;;;6.17;3.80;;;;;;;-5.65;100.00;99002.72;5014394;28;20108;-65
2023/11/23 04:39:05;;;;;;;7.87;3.80;;;;;;;-5.58;100.00;99019.53;5013895;28;20056;-66
2023/11/23 04:41:31;;;;;;;5.17;3.73;;;;;;;-5.76;100.00;98979.28;5013741;28;20121;-69
2023/11/23 04:43:56;;;;;;;6.50;3.97;;;;;;;-5.60;100.00;98998.06;5013995;28;20416;-69
2023/11/23 04:46:23;;;;;;;5.60;3.80;;;;;;;-5.62;100.00;98986.94;5013538;28;20064;-69
2023/11/23 04:48:48;;;;;;;7.53;3.63;;;;;;;-5.67;100.00;98976.06;5013470;28;20042;-66
2023/11/23 04:51:15;;;;;;;5.87;4.07;;;;;;;-5.63;100.00;98961.94;5013250;28;20509;-67
2023/11/23 04:53:42;;;;;;;5.75;4.47;;;;;;;-5.51;100.00;98973.25;5013119;28;20473;-68
2023/11/23 04:56:07;;;;;;;5.43;4.07;;;;;;;-5.66;100.00;98944.00;5013457;28;20124;-68
2023/11/23 04:58:33;;;;;;;7.43;4.63;;;;;;;-5.67;100.00;98922.44;5013166;28;20179;-69
2023/11/23 05:01:00;;;;;;;4.50;4.00;;;;;;;-5.53;100.00;98938.81;5013183;28;20046;-70
2023/11/23 05:03:29;;;;;;;6.18;3.78;;;;;;;-5.95;100.00;98855.31;5008897;28;20041;-67
2023/11/23 05:05:55;;;;;;;4.75;4.35;;;;;;;-5.81;100.00;98869.88;5011782;28;20077;-66
2023/11/23 05:08:21;;;;;;;4.80;3.50;;;;;;;-5.56;100.00;98900.94;5011683;28;20427;-69
2023/11/23 05:10:46;;;;;;;4.83;3.60;;;;;;;-5.68;100.00;98858.56;5011656;28;20034;-67
2023/11/23 05:13:13;;;;;;;3.73;3.37;;;;;;;-5.38;100.00;98876.31;5013684;28;20133;-68
2023/11/23 05:15:39;;;;;;;5.82;3.95;;;;;;;-5.37;100.00;98862.41;5023245;28;20038;-66
2023/11/23 05:18:05;;;;;;;4.30;3.63;;;;;;;-5.38;100.00;98840.00;5021544;28;20130;-68
2023/11/23 05:20:32;;;;;;;6.80;3.63;;;;;;;-5.53;100.00;98830.69;5022569;28;20086;-66
2023/11/23 05:22:59;;;;;;;5.40;4.55;;;;;;;-5.40;100.00;98854.00;5024003;28;20038;-68
2023/11/23 05:25:24;;;;;;;6.00;3.53;;;;;;;-5.47;100.00;98835.47;5015208;28;20552;-67
2023/11/23 05:27:51;;;;;;;5.13;3.43;;;;;;;-5.53;100.00;98841.06;5012446;28;20057;-68
2023/11/23 05:30:17;;;;;;;6.35;3.88;;;;;;;-5.54;100.00;98820.44;5012728;28;20386;-65
2023/11/23 05:32:43;;;;;;;3.97;3.63;;;;;;;-5.46;100.00;98829.34;5012611;28;20128;-65
2023/11/23 05:35:09;;;;;;;6.47;4.40;;;;;;;-5.90;100.00;98757.31;5011654;28;20041;-67
2023/11/23 05:37:34;;;;;;;4.80;3.70;;;;;;;-5.80;100.00;98760.88;5012240;28;20041;-67
2023/11/23 05:40:00;;;;;;;4.63;4.10;;;;;;;-5.69;100.00;98778.28;5019646;28;20033;-66
2023/11/23 05:42:26;;;;;;;5.77;3.77;;;;;;;-5.46;100.00;98798.22;5027159;28;20051;-67
2023/11/23 05:44:52;;;;;;;7.10;4.50;;;;;;;-5.54;100.00;98753.00;5031472;28;20401;-68
2023/11/23 05:47:18;;;;;;;7.68;3.88;;;;;;;-5.58;100.00;98765.38;5031721;28;20114;-68
2023/11/23 05:49:44;;;;;;;6.78;3.58;;;;;;;-5.63;100.00;98768.28;5030908;28;20029;-68
2023/11/23 05:52:10;;;;;;;7.77;4.40;;;;;;;-5.62;100.00;98769.13;5031573;28;20048;-69
2023/11/23 05:54:37;;;;;;;9.70;4.27;;;;;;;-5.61;100.00;98744.84;5025947;28;20280;-66
2023/11/23 05:57:03;;;;;;;5.28;3.90;;;;;;;-5.58;100.00;98738.59;5032103;28;20448;-67
2023/11/23 05:59:29;;;;;;;6.55;4.95;;;;;;;-5.50;100.00;98760.44;5031717;28;20125;-70
2023/11/23 06:01:55;;;;;;;8.10;4.40;;;;;;;-5.54;100.00;98760.78;5032240;28;20168;-67
2023/11/23 06:04:21;;;;;;;5.13;4.43;;;;;;;-5.74;100.00;98725.94;5031607;28;20029;-72
2023/11/23 06:06:46;;;;;;;4.80;3.57;;;;;;;-5.56;100.00;98737.53;5030316;28;20033;-69
2023/11/23 06:09:12;;;;;;;4.87;4.27;;;;;;;-5.80;100.00;98688.28;5031647;28;20063;-69
2023/11/23 06:11:38;;;;;;;4.83;3.80;;;;;;;-5.67;100.00;98701.19;5031882;28;20527;-70
2023/11/23 06:14:04;;;;;;;6.75;5.00;;;;;;;-5.59;100.00;98701.47;5031870;28;20056;-71
2023/11/23 06:16:30;;;;;;;6.18;4.05;;;;;;;-5.71;100.00;98698.00;5030382;28;20045;-70
2023/11/23 06:18:55;;;;;;;6.07;4.00;;;;;;;-5.42;100.00;98740.00;5031860;28;20033;-71
2023/11/23 06:21:21;;;;;;;4.63;3.80;;;;;;;-5.63;100.00;98674.09;5031497;28;20033;-71
2023/11/23 06:23:47;;;;;;;5.70;4.30;;;;;;;-5.61;100.00;98677.41;5030027;28;20104;-70
2023/11/23 06:26:13;;;;;;;6.43;4.80;;;;;;;-5.55;100.00;98683.91;5031945;28;20481;-71
2023/11/23 06:28:39;;;;;;;7.50;3.97;;;;;;;-5.59;100.00;98675.53;5031639;28;20065;-69
2023/11/23 06:31:05;;;;;;;7.70;4.73;;;;;;;-5.53;100.00;98688.03;5031754;28;20575;-70
2023/11/23 06:33:31;;;;;;;19.10;7.55;;;;;;;-5.47;100.00;98679.84;5030265;28;20042;-69
2023/11/23 06:35:57;;;;;;;7.43;4.80;;;;;;;-5.57;100.00;98663.28;5030366;28;20048;-70
2023/11/23 06:38:24;;;;;;;8.43;5.17;;;;;;;-5.53;100.00;98654.34;5031648;28;20049;-69
2023/11/23 06:40:50;;;;;;;8.15;4.80;;;;;;;-5.54;100.00;98652.69;5031811;28;20545;-71
2023/11/23 06:43:15;;;;;;;15.23;6.87;;;;;;;-5.52;100.00;98634.41;5031907;28;20120;-68
2023/11/23 06:45:41;;;;;;;18.33;8.27;;;;;;;-6.27;100.00;98510.38;5031661;28;20053;-69
2023/11/23 06:48:06;;;;;;;8.30;4.70;;;;;;;-5.32;100.00;98641.53;5031601;28;20029;-70
2023/11/23 06:50:32;;;;;;;12.80;8.10;;;;;;;-5.20;100.00;98640.66;5031766;28;20044;-69
2023/11/23 06:52:59;;;;;;;7.03;5.47;;;;;;;-5.33;100.00;98611.34;5031560;28;20033;-66
2023/11/23 06:55:25;;;;;;;6.35;4.35;;;;;;;-5.30;100.00;98604.16;5031943;28;20322;-65
2023/11/23 06:57:50;;;;;;;8.40;6.27;;;;;;;-5.18;100.00;98611.97;5031257;28;20493;-68
2023/11/23 07:00:22;;;;;;;8.27;5.50;;;;;;;-5.02;100.00;98623.66;5032035;28;20449;-67
2023/11/23 07:02:50;;;;;;;8.05;4.80;;;;;;;-5.12;100.00;98588.16;5030683;28;20069;-66
2023/11/23 07:05:18;;;;;;;9.50;6.38;;;;;;;-4.87;100.00;98606.09;5030202;28;20586;-65
2023/11/23 07:07:44;;;;;;;15.25;6.10;;;;;;;-5.23;100.00;98557.00;5031915;28;20562;-66
2023/11/23 07:10:12;;;;;;;8.07;5.07;;;;;;;-4.98;100.00;98603.47;5031475;28;20033;-66
2023/11/23 07:12:38;;;;;;;10.13;5.30;;;;;;;-5.19;100.00;98558.44;5032437;28;20029;-67
2023/11/23 07:15:04;;;;;;;10.17;6.30;;;;;;;-5.08;100.00;98571.41;5032223;28;20106;-66
2023/11/23 07:17:30;;;;;;;9.02;5.03;;;;;;;-5.47;100.00;98492.25;5032256;28;20037;-65
2023/11/23 07:19:56;;;;;;;8.53;5.93;;;;;;;-5.10;100.00;98547.34;5032455;28;20044;-66
2023/11/23 07:22:23;;;;;;;8.70;4.70;;;;;;;-5.12;100.00;98544.88;5032167;28;20171;-66
2023/11/23 07:24:49;;;;;;;13.55;7.60;;;;;;;-5.00;100.00;98543.06;5034286;28;20041;-65
2023/11/23 07:27:16;;;;;;;19.15;7.05;;;;;;;-5.02;100.00;98539.78;5034923;28;20053;-65
2023/11/23 07:29:41;;;;;;;10.38;6.53;;;;;;;-5.43;100.00;98463.38;5033207;28;20505;-67
2023/11/23 07:32:09;;;;;;;8.13;4.93;;;;;;;-5.00;100.00;98528.31;5034603;28;20038;-66
2023/11/23 07:34:35;;;;;;;7.43;4.90;;;;;;;-4.90;100.00;98533.66;5033404;28;20060;-66
2023/11/23 07:37:00;;;;;;;5.83;3.67;;;;;;;-4.80;100.00;98521.59;5034770;28;20524;-66
2023/11/23 07:39:26;;;;;;;7.25;4.53;;;;;;;-4.83;100.00;98495.88;5034615;28;20041;-67
2023/11/23 07:41:53;;;;;;;6.80;5.13;;;;;;;-4.90;100.00;98471.34;5034459;28;20163;-67
2023/11/23 07:44:20;;;;;;;6.80;4.25;;;;;;;-4.68;100.00;98493.81;5034363;28;20049;-66
2023/11/23 07:46:47;;;;;;;8.25;5.10;;;;;;;-4.91;100.00;98458.47;5034136;28;20037;-66
2023/11/23 07:49:13;;;;;;;6.75;4.93;;;;;;;-4.62;100.00;98484.72;5016610;28;20116;-67
2023/11/23 07:51:39;;;;;;;5.65;3.90;;;;;;;-4.78;100.00;98462.56;5034359;28;20038;-66
2023/11/23 07:54:05;;;;;;;7.70;4.90;;;;;;;-4.73;100.00;98447.44;5032895;28;20087;-68
2023/11/23 07:56:32;;;;;;;8.75;5.57;;;;;;;-5.05;100.00;98400.69;5033991;28;20045;-68
2023/11/23 07:58:59;;;;;;;11.90;6.18;;;;;;;-4.60;100.00;98464.66;5032811;28;20569;-68
2023/11/23 08:01:25;;;;;;;6.90;4.70;;;;;;;-4.68;100.00;98434.91;5032579;28;20029;-67
2023/11/23 08:03:51;;;;;;;8.68;5.22;;;;;;;-4.54;100.00;98432.97;5032741;28;20037;-66
2023/11/23 08:06:17;;;;;;;13.20;5.23;;;;;;;-4.40;100.00;98443.88;5033688;28;20461;-66
2023/11/23 08:08:43;;;;;;;9.40;5.13;;;;;;;-4.41;100.00;98433.63;5033938;28;20135;-66
2023/11/23 08:11:09;;;;;;;6.47;4.47;;;;;;;-4.40;100.00;98432.66;5033946;28;20095;-68
2023/11/23 08:13:36;;;;;;;11.30;6.80;;;;;;;-4.24;100.00;98427.06;5033924;28;20432;-65
2023/11/23 08:16:04;;;;;;;10.10;5.68;;;;;;;-4.58;100.00;98356.25;5033642;28;20136;-66
2023/11/23 08:18:30;;;;;;;10.88;5.80;;;;;;;-4.47;100.00;98379.56;5032848;28;20041;-67
2023/11/23 08:20:57;;;;;;;10.95;4.82;;;;;;;-4.23;100.00;98407.91;5033483;28;20041;-67
2023/11/23 08:23:23;;;;;;;8.80;4.85;;;;;;;-4.24;100.00;98401.06;5033632;28;20053;-66
2023/11/23 08:25:49;;;;;;;11.97;6.47;;;;;;;-4.18;100.00;98401.38;5032345;28;20445;-68
2023/11/23 08:28:16;;;;;;;7.33;5.37;;;;;;;-4.36;100.00;98375.13;5033611;28;20092;-66
2023/11/23 08:30:42;;;;;;;9.02;5.20;;;;;;;-4.23;100.00;98389.72;5032143;28;20041;-68
2023/11/23 08:33:08;;;;;;;6.13;4.80;;;;;;;-4.27;100.00;98376.16;5033459;28;20038;-65
2023/11/23 08:35:34;;;;;;;7.83;5.60;;;;;;;-4.25;100.00;98366.47;5032832;28;20042;-68
2023/11/23 08:38:00;;;;;;;7.50;4.63;;;;;;;-4.37;100.00;98347.50;5032092;28;20366;-67
2023/11/23 08:40:26;;;;;;;6.68;4.60;;;;;;;-4.31;100.00;98338.38;5033452;28;20033;-65
2023/11/23 08:42:52;;;;;;;5.30;4.80;;;;;;;-4.23;100.00;98351.56;5033364;28;20083;-65
2023/11/23 08:45:18;;;;;;;12.35;5.95;;;;;;;-4.31;100.00;98343.59;5033158;28;20152;-65
2023/11/23 08:47:44;;;;;;;11.63;5.87;;;;;;;-4.32;100.00;98341.13;5033013;28;20185;-66
2023/11/23 08:50:13;;;;;;;11.13;5.13;;;;;;;-4.23;100.00;98330.78;5033190;28;20373;-67
2023/11/23 08:52:39;;;;;;;10.75;6.15;;;;;;;-4.23;100.00;98309.97;5033234;28;20052;-66
2023/11/23 08:55:06;;;;;;;8.57;6.03;;;;;;;-4.19;100.00;98316.56;5031781;28;20033;-69
2023/11/23 08:57:31;;;;;;;7.95;5.63;;;;;;;-4.28;100.00;98291.34;5032990;28;20120;-67
2023/11/23 08:59:57;;;;;;;9.20;6.57;;;;;;;-4.25;100.00;98280.69;5032487;28;20135;-67
2023/11/23 09:02:23;;;;;;;13.53;6.37;;;;;;;-4.24;100.00;98266.75;5034184;28;20037;-66
2023/11/23 09:04:48;;;;;;;9.43;5.67;;;;;;;-4.13;100.00;98278.81;5033107;28;20397;-66
2023/11/23 09:07:14;;;;;;;11.30;6.57;;;;;;;-4.37;100.00;98240.16;5033147;28;20120;-66
2023/11/23 09:09:39;;;;;;;16.03;6.70;;;;;;;-4.19;100.00;98259.38;5033183;28;20068;-67
2023/11/23 09:12:06;;;;;;;12.23;5.93;;;;;;;-4.20;100.00;98239.53;5033375;28;20033;-68
2023/11/23 09:14:32;;;;;;;10.80;6.10;;;;;;;-4.00;100.00;98255.22;5033404;28;20393;-66
2023/11/23 09:16:58;;;;;;;12.53;8.20;;;;;;;-4.01;100.00;98246.59;5032845;28;20038;-65
2023/11/23 09:19:23;;;;;;;8.80;5.80;;;;;;;-4.31;100.00;98192.88;5032808;28;20444;-64
2023/11/23 09:21:50;;;;;;;11.67;8.53;;;;;;;-3.86;100.00;98244.44;5031650;28;20077;-67
2023/11/23 09:24:16;;;;;;;12.20;6.65;;;;;;;-3.70;100.00;98229.16;5032723;28;20136;-68
2023/11/23 09:26:46;;;;;;;11.63;5.73;;;;;;;-3.63;100.00;98216.41;5030949;28;20141;-68
2023/11/23 09:29:12;;;;;;;13.50;5.50;;;;;;;-3.66;100.00;98211.50;5032585;28;20477;-68
2023/11/23 09:31:37;;;;;;;9.00;6.37;;;;;;;-3.73;100.00;98198.22;5032427;28;20095;-67
2023/11/23 09:34:03;;;;;;;8.37;5.97;;;;;;;-3.62;100.00;98205.06;5032210;28;20042;-68
2023/11/23 09:36:29;;;;;;;7.73;5.83;;;;;;;-3.83;100.00;98153.97;5032370;28;20033;-67
2023/11/23 09:39:00;;;;;;;15.80;6.57;;;;;;;-3.66;100.00;98165.50;5032077;28;20367;-66
2023/11/23 09:41:33;;;;;;;10.70;6.15;;;;;;;-3.45;100.00;98192.22;5032453;28;20033;-67
2023/11/23 09:43:59;;;;;;;9.43;5.70;;;;;;;-3.41;100.00;98181.53;5032054;28;20034;-68
2023/11/23 09:46:25;;;;;;;11.50;5.63;;;;;;;-3.38;100.00;98174.25;5031638;28;20125;-68
2023/11/23 09:48:53;;;;;;;13.30;6.00;;;;;;;-3.45;100.00;98142.75;5032212;28;20437;-66
2023/11/23 09:51:19;;;;;;;6.53;5.20;;;;;;;-3.33;100.00;98166.84;5032346;28;20064;-68
2023/11/23 09:53:46;;;;;;;8.33;5.60;;;;;;;-3.39;100.00;98153.56;5031827;28;20033;-68
2023/11/23 09:56:14;;;;;;;11.05;6.72;;;;;;;-3.46;100.00;98135.91;5032004;28;20271;-66
2023/11/23 09:58:40;;;;;;;8.40;6.93;;;;;;;-3.40;100.00;98137.13;5032038;28;20041;-67
2023/11/23 10:01:06;;;;;;;11.27;5.43;;;;;;;-3.31;100.00;98130.28;5032187;28;20029;-66
2023/11/23 10:03:34;;;;;;;13.50;7.30;;;;;;;-3.46;100.00;98106.47;5031847;28;20037;-67
2023/11/23 10:06:01;;;;;;;10.85;6.65;;;;;;;-3.43;100.00;98101.00;5031706;28;20051;-68
2023/11/23 10:08:30;;;;;;;9.00;5.93;;;;;;;-3.39;100.00;98115.38;5031804;28;20523;-69
2023/11/23 10:10:58;;;;;;;9.15;5.20;;;;;;;-3.49;100.00;98101.53;5031794;28;20033;-69
2023/11/23 10:13:24;;;;;;;11.93;6.28;;;;;;;-3.42;100.00;98114.81;5030949;28;20045;-70
2023/11/23 10:15:50;;;;;;;8.90;6.40;;;;;;;-3.53;100.00;98089.75;5032270;28;20090;-67
2023/11/23 10:18:15;;;;;;;10.00;6.13;;;;;;;-3.42;100.00;98109.63;5031641;28;20207;-67
2023/11/23 10:20:49;;;;;;;11.33;5.90;;;;;;;-3.46;100.00;98104.69;5031481;28;20827;-68
2023/11/23 10:23:14;;;;;;;14.38;7.35;;;;;;;-3.51;100.00;98072.22;5032132;28;20034;-68
2023/11/23 10:25:41;;;;;;;13.20;6.23;;;;;;;-3.47;100.00;98073.59;5028392;28;20048;-66
2023/11/23 10:28:07;;;;;;;11.93;8.68;;;;;;;-3.44;100.00;98076.75;5030262;28;20183;-66
2023/11/23 10:30:39;;;;;;;19.05;9.75;;;;;;;-3.52;100.00;98066.19;5031776;28;20135;-74
2023/11/23 10:33:05;;;;;;;12.90;8.73;;;;;;;-3.54;100.00;98064.72;5031323;28;20616;-68
2023/11/23 10:35:38;;;;;;;15.40;7.85;;;;;;;-3.39;100.00;98071.13;5032651;28;20033;-67
2023/11/23 10:38:06;;;;;;;12.68;7.60;;;;;;;-3.45;100.00;98049.09;5032109;28;20046;-68
2023/11/23 10:40:32;;;;;;;15.98;8.55;;;;;;;-3.45;100.00;98030.88;5031339;28;20041;-69
2023/11/23 10:43:01;;;;;;;14.98;8.13;;;;;;;-3.09;100.00;98058.84;5031364;28;20037;-67
2023/11/23 10:45:27;;;;;;;14.30;9.00;;;;;;;-2.98;100.00;98056.88;5031528;28;20037;-69
2023/11/23 10:47:54;;;;;;;13.63;6.97;;;;;;;-2.96;100.00;98035.91;5031302;28;20041;-71
2023/11/23 10:50:20;;;;;;;14.48;7.32;;;;;;;-2.81;100.00;98044.88;5031416;28;20291;-69
2023/11/23 10:52:47;;;;;;;13.52;7.65;;;;;;;-2.96;100.00;98021.09;5031572;28;20037;-72
2023/11/23 10:55:13;;;;;;;13.13;7.03;;;;;;;-2.83;100.00;98037.22;5031427;28;20037;-68
2023/11/23 10:57:54;;;;;;;13.50;7.25;;;;;;;-2.71;100.00;98035.22;5032346;28;20037;-69
2023/11/23 11:00:23;;;;;;;14.43;8.38;;;;;;;-2.74;100.00;98003.44;5035379;28;20034;-65
2023/11/23 11:02:49;;;;;;;16.33;9.68;;;;;;;-2.61;100.00;98015.13;5034867;28;20105;-66
2023/11/23 11:05:29;;;;;;;18.42;9.60;;;;;;;-2.53;100.00;97998.78;5033798;28;20480;-68
2023/11/23 11:08:01;;;;;;;15.57;7.63;;;;;;;-2.30;100.00;98014.81;5035283;28;20040;-66
2023/11/23 11:10:28;;;;;;;9.65;6.88;;;;;;;-2.44;100.00;97990.09;5034017;28;20038;-66
2023/11/23 11:13:10;;;;;;;11.05;6.03;;;;;;;-2.54;100.00;97994.56;5035124;28;20424;-67
2023/11/23 11:15:35;;;;;;;12.85;7.80;;;;;;;-2.64;100.00;97972.94;5035367;28;20049;-66
2023/11/23 11:18:06;;;;;;;11.07;6.43;;;;;;;-2.52;100.00;98000.44;5034374;28;20038;-64
2023/11/23 11:20:39;;;;;;;8.68;5.80;;;;;;;-2.57;100.00;97987.03;5035500;28;20041;-66